createdAt,value
2019-05-13T00:00:44.673Z,61.17
2019-05-13T00:03:13.867Z,54.10
2019-05-13T00:05:44.560Z,61.23
2019-05-13T00:08:14.127Z,63.37
2019-05-13T00:10:44.447Z,62.03
2019-05-13T00:13:14.744Z,60.30
2019-05-13T00:15:44.468Z,62.20
2019-05-13T00:18:14.471Z,60.77
2019-05-13T00:20:44.546Z,61.33
2019-05-13T00:23:14.364Z,58.47
2019-05-13T00:25:44.449Z,59.77
2019-05-13T00:28:14.396Z,56.83
2019-05-13T00:30:44.561Z,55.47
2019-05-13T00:33:14.213Z,56.13
2019-05-13T00:35:44.215Z,52.67
2019-05-13T00:38:14.277Z,53.87
2019-05-13T00:40:44.283Z,52.87
2019-05-13T00:43:14.336Z,55.57
2019-05-13T00:45:44.774Z,54.93
2019-05-13T00:48:14.399Z,54.80
2019-05-13T00:50:44.302Z,52.77
2019-05-13T00:53:14.187Z,57.13
2019-05-13T00:55:44.582Z,54.10
2019-05-13T00:58:14.200Z,58.00
2019-05-13T01:00:44.532Z,58.13
2019-05-13T01:03:14.445Z,63.70
2019-05-13T01:05:44.425Z,59.97
2019-05-13T01:08:14.497Z,57.93
2019-05-13T01:10:45.132Z,59.80
2019-05-13T01:13:14.276Z,51.83
2019-05-13T01:15:44.397Z,49.73
2019-05-13T01:18:14.326Z,50.00
2019-05-13T01:20:43.862Z,42.30
2019-05-13T01:23:14.224Z,37.57
2019-05-13T01:25:44.439Z,36.40
2019-05-13T01:28:13.812Z,34.27
2019-05-13T01:30:43.984Z,33.33
2019-05-13T01:33:14.492Z,25.30
2019-05-13T01:35:44.497Z,20.83
2019-05-13T01:38:13.776Z,17.77
2019-05-13T01:40:43.975Z,16.00
2019-05-13T01:43:14.426Z,15.27
2019-05-13T01:45:44.133Z,18.00
2019-05-13T01:48:14.222Z,18.53
2019-05-13T01:50:44.524Z,19.23
2019-05-13T01:53:14.519Z,22.60
2019-05-13T01:55:44.271Z,21.73
2019-05-13T01:58:14.602Z,21.27
2019-05-13T02:03:19.315Z,20.50
2019-05-13T02:05:48.175Z,22.33
2019-05-13T02:08:17.078Z,20.67
2019-05-13T02:10:58.668Z,21.23
2019-05-13T02:13:27.527Z,19.57
2019-05-13T02:15:56.395Z,17.97
2019-05-13T02:18:25.341Z,17.00
2019-05-13T02:20:55.360Z,17.53
2019-05-13T02:23:24.684Z,20.63
2019-05-13T02:25:54.384Z,18.87
2019-05-13T02:28:25.065Z,18.43
2019-05-13T02:30:55.973Z,15.77
2019-05-13T02:33:24.816Z,15.33
2019-05-13T02:35:54.077Z,15.33
2019-05-13T02:38:28.929Z,16.60
2019-05-13T02:40:53.953Z,15.23
2019-05-13T02:43:23.833Z,16.97
2019-05-13T02:45:54.197Z,16.10
2019-05-13T02:48:24.348Z,16.57
2019-05-13T02:50:54.142Z,16.33
2019-05-13T02:53:24.347Z,18.27
2019-05-13T02:55:53.971Z,18.23
2019-05-13T02:58:25.118Z,20.20
2019-05-13T03:00:54.205Z,18.07
2019-05-13T03:03:23.953Z,18.30
2019-05-13T03:05:53.949Z,17.83
2019-05-13T03:08:39.152Z,17.57
2019-05-13T03:10:54.081Z,19.80
2019-05-13T03:13:24.011Z,19.90
2019-05-13T03:16:13.290Z,18.60
2019-05-13T03:18:43.552Z,18.40
2019-05-13T03:21:13.166Z,19.23
2019-05-13T03:23:44.022Z,20.23
2019-05-13T03:26:13.351Z,16.80
2019-05-13T03:28:43.519Z,15.53
2019-05-13T03:31:17.071Z,19.00
2019-05-13T03:33:46.273Z,13.40
2019-05-13T03:36:16.178Z,15.13
2019-05-13T03:39:01.834Z,13.23
2019-05-13T03:41:17.697Z,13.97
2019-05-13T03:43:47.685Z,13.43
2019-05-13T03:46:22.440Z,13.97
2019-05-13T03:48:53.051Z,13.93
2019-05-13T03:51:23.261Z,13.53
2019-05-13T03:53:53.411Z,15.10
2019-05-13T03:56:23.910Z,14.97
2019-05-13T03:58:54.029Z,13.53
2019-05-13T04:01:23.417Z,14.70
2019-05-13T04:03:52.919Z,14.47
2019-05-13T04:06:23.834Z,14.43
2019-05-13T04:08:54.136Z,15.27
2019-05-13T04:11:23.796Z,14.50
2019-05-13T04:13:53.218Z,13.57
2019-05-13T04:16:23.745Z,12.97
2019-05-13T04:18:53.695Z,12.83
2019-05-13T04:21:23.004Z,13.10
2019-05-13T04:23:53.230Z,11.53
2019-05-13T04:26:23.516Z,11.47
2019-05-13T04:28:53.656Z,11.73
2019-05-13T04:31:22.932Z,11.50
2019-05-13T04:33:53.385Z,11.27
2019-05-13T04:36:23.833Z,8.50
2019-05-13T04:38:53.213Z,7.50
2019-05-13T04:41:23.162Z,7.17
2019-05-13T04:43:53.952Z,7.77
2019-05-13T04:46:23.623Z,6.87
2019-05-13T04:48:53.227Z,6.60
2019-05-13T04:51:22.944Z,5.83
2019-05-13T04:53:56.634Z,6.17
2019-05-13T04:56:22.621Z,6.67
2019-05-13T04:58:52.834Z,7.20
2019-05-13T05:01:59.425Z,6.00
2019-05-13T05:04:33.944Z,6.33
2019-05-13T05:07:03.349Z,6.63
2019-05-13T05:10:15.480Z,5.87
2019-05-13T05:12:23.943Z,6.17
2019-05-13T05:15:04.804Z,6.10
2019-05-13T05:17:52.967Z,15.73
2019-05-13T05:20:33.919Z,5.50
2019-05-13T05:23:21.462Z,6.37
2019-05-13T05:26:02.241Z,6.80
2019-05-13T05:28:34.861Z,7.60
2019-05-13T05:31:25.088Z,8.47
2019-05-13T05:34:06.550Z,7.77
2019-05-13T05:36:52.727Z,8.77
2019-05-13T05:39:24.573Z,9.80
2019-05-13T05:41:56.235Z,9.57
2019-05-13T05:44:32.441Z,11.20
2019-05-13T05:47:04.209Z,11.27
2019-05-13T05:49:33.176Z,11.73
2019-05-13T05:52:04.906Z,12.53
2019-05-13T05:54:39.204Z,12.40
2019-05-13T05:57:08.904Z,12.43
2019-05-13T05:59:43.419Z,12.20
2019-05-13T06:02:12.400Z,10.30
2019-05-13T06:04:43.006Z,11.27
2019-05-13T06:07:13.002Z,10.60
2019-05-13T06:09:42.427Z,10.40
2019-05-13T06:12:12.596Z,10.87
2019-05-13T06:14:42.449Z,12.13
2019-05-13T06:17:11.631Z,11.53
2019-05-13T06:19:41.826Z,11.77
2019-05-13T06:22:12.250Z,11.07
2019-05-13T06:24:42.308Z,10.90
2019-05-13T06:27:11.809Z,10.50
2019-05-13T06:29:42.364Z,10.93
2019-05-13T06:32:31.453Z,10.50
2019-05-13T06:35:02.178Z,11.10
2019-05-13T06:37:32.146Z,10.87
2019-05-13T06:40:02.031Z,10.67
2019-05-13T06:42:32.499Z,11.43
2019-05-13T06:45:02.023Z,11.10
2019-05-13T06:47:32.517Z,12.43
2019-05-13T06:50:03.254Z,13.83
2019-05-13T06:52:32.532Z,15.80
2019-05-13T06:55:02.739Z,16.77
2019-05-13T06:57:32.323Z,16.50
2019-05-13T07:00:01.860Z,17.90
2019-05-13T07:02:32.010Z,18.23
2019-05-13T07:05:02.331Z,19.50
2019-05-13T07:07:31.913Z,20.43
2019-05-13T07:10:02.567Z,19.63
2019-05-13T07:12:31.775Z,20.80
2019-05-13T07:15:02.427Z,22.60
2019-05-13T07:17:32.365Z,23.83
2019-05-13T07:20:02.361Z,23.73
2019-05-13T07:22:32.255Z,24.30
2019-05-13T07:25:02.561Z,23.17
2019-05-13T07:27:31.935Z,23.80
2019-05-13T07:30:02.222Z,22.67
2019-05-13T07:32:31.631Z,22.70
2019-05-13T07:35:04.006Z,22.00
2019-05-13T07:37:31.948Z,23.07
2019-05-13T07:40:02.542Z,22.00
2019-05-13T07:42:31.687Z,22.43
2019-05-13T07:45:01.525Z,23.17
2019-05-13T07:47:31.462Z,23.57
2019-05-13T07:50:02.537Z,20.60
2019-05-13T07:52:31.922Z,20.30
2019-05-13T07:55:01.761Z,20.63
2019-05-13T07:57:31.918Z,21.87
2019-05-13T08:00:02.074Z,21.47
2019-05-13T08:02:31.998Z,20.37
2019-05-13T08:05:02.379Z,21.77
2019-05-13T08:07:31.691Z,21.53
2019-05-13T08:10:03.402Z,21.40
2019-05-13T08:12:31.883Z,20.63
2019-05-13T08:15:03.237Z,20.93
2019-05-13T08:17:32.726Z,21.17
2019-05-13T08:20:02.861Z,24.02
2019-05-13T08:22:32.223Z,22.43
2019-05-13T08:25:03.051Z,22.63
2019-05-13T08:27:35.173Z,23.57
2019-05-13T08:30:02.298Z,22.83
2019-05-13T08:32:31.563Z,22.37
2019-05-13T08:35:06.521Z,21.67
2019-05-13T08:37:32.080Z,21.20
2019-05-13T08:40:01.706Z,19.03
2019-05-13T08:42:32.244Z,18.07
2019-05-13T08:45:02.007Z,19.63
2019-05-13T08:47:31.520Z,17.77
2019-05-13T08:50:04.021Z,18.30
2019-05-13T08:52:31.458Z,17.30
2019-05-13T08:55:01.539Z,16.40
2019-05-13T08:57:31.568Z,15.47
2019-05-13T09:00:04.728Z,16.90
2019-05-13T09:02:31.440Z,17.20
2019-05-13T09:05:02.385Z,15.17
2019-05-13T09:07:32.065Z,15.37
2019-05-13T09:10:01.763Z,16.53
2019-05-13T09:12:35.732Z,16.40
2019-05-13T09:15:03.247Z,15.40
2019-05-13T09:17:32.165Z,15.97
2019-05-13T09:20:02.847Z,15.50
2019-05-13T09:22:31.910Z,14.73
2019-05-13T09:25:02.126Z,14.63
2019-05-13T09:27:31.856Z,13.80
2019-05-13T09:30:02.670Z,15.07
2019-05-13T09:32:31.873Z,13.83
2019-05-13T09:35:03.049Z,15.23
2019-05-13T09:37:31.797Z,14.60
2019-05-13T09:40:02.337Z,16.00
2019-05-13T09:42:47.521Z,15.83
2019-05-13T09:45:02.377Z,14.67
2019-05-13T09:47:32.212Z,14.93
2019-05-13T09:50:01.189Z,15.57
2019-05-13T09:52:31.910Z,16.27
2019-05-13T09:55:03.111Z,15.97
2019-05-13T09:57:32.144Z,17.40
2019-05-13T10:00:01.931Z,14.23
2019-05-13T10:02:32.076Z,15.70
2019-05-13T10:05:02.264Z,13.47
2019-05-13T10:07:31.945Z,13.67
2019-05-13T10:10:01.871Z,15.43
2019-05-13T10:12:31.919Z,15.07
2019-05-13T10:15:02.164Z,14.53
2019-05-13T10:17:31.921Z,13.70
2019-05-13T10:20:00.983Z,15.50
2019-05-13T10:22:32.003Z,15.50
2019-05-13T10:25:02.508Z,14.57
2019-05-13T10:27:32.448Z,14.93
2019-05-13T10:30:01.879Z,15.63
2019-05-13T10:32:32.389Z,14.43
2019-05-13T10:35:03.226Z,13.90
2019-05-13T10:37:32.688Z,14.50
2019-05-13T10:40:02.258Z,13.27
2019-05-13T10:42:31.652Z,12.93
2019-05-13T10:45:02.533Z,13.00
2019-05-13T10:47:31.078Z,11.03
2019-05-13T10:50:02.859Z,12.27
2019-05-13T10:52:32.269Z,11.67
2019-05-13T10:55:01.966Z,11.97
2019-05-13T10:57:31.908Z,11.97
2019-05-13T11:00:03.267Z,14.00
2019-05-13T11:02:32.734Z,13.90
2019-05-13T11:05:03.239Z,14.57
2019-05-13T11:07:32.402Z,14.97
2019-05-13T11:10:02.334Z,14.23
2019-05-13T11:12:33.506Z,15.03
2019-05-13T11:15:02.596Z,13.73
2019-05-13T11:17:33.308Z,14.77
2019-05-13T11:20:03.464Z,15.80
2019-05-13T11:22:32.830Z,16.03
2019-05-13T11:25:02.672Z,12.93
2019-05-13T11:27:32.361Z,13.77
2019-05-13T11:30:05.428Z,14.00
2019-05-13T11:32:32.151Z,15.03
2019-05-13T11:35:01.780Z,15.13
2019-05-13T11:37:32.062Z,15.53
2019-05-13T11:40:02.738Z,16.47
2019-05-13T11:42:32.796Z,16.97
2019-05-13T11:45:02.037Z,16.63
2019-05-13T11:47:32.252Z,14.57
2019-05-13T11:50:02.343Z,14.93
2019-05-13T11:52:31.720Z,14.23
2019-05-13T11:55:02.549Z,14.50
2019-05-13T11:57:31.565Z,14.53
2019-05-13T12:00:02.666Z,14.80
2019-05-13T12:02:32.647Z,14.07
2019-05-13T12:05:03.745Z,15.53
2019-05-13T12:07:33.101Z,15.63
2019-05-13T12:10:02.737Z,13.80
2019-05-13T12:12:34.365Z,14.10
2019-05-13T12:15:26.390Z,15.70
2019-05-13T12:17:34.139Z,16.00
2019-05-13T12:20:03.554Z,14.23
2019-05-13T12:22:32.470Z,15.00
2019-05-13T12:25:02.181Z,13.67
2019-05-13T12:27:31.754Z,13.77
2019-05-13T12:30:03.018Z,15.17
2019-05-13T12:32:32.333Z,14.37
2019-05-13T12:35:03.623Z,17.20
2019-05-13T12:37:33.437Z,17.33
2019-05-13T12:40:03.365Z,17.57
2019-05-13T12:42:33.867Z,17.03
2019-05-13T12:45:09.871Z,18.17
2019-05-13T12:47:33.708Z,18.30
2019-05-13T12:50:03.473Z,18.83
2019-05-13T12:52:32.748Z,20.00
2019-05-13T12:55:03.255Z,19.67
2019-05-13T12:57:32.596Z,21.67
2019-05-13T13:00:02.604Z,19.83
2019-05-13T13:02:32.621Z,19.27
2019-05-13T13:05:13.350Z,19.27
2019-05-13T13:07:37.474Z,19.90
2019-05-13T13:10:02.921Z,19.07
2019-05-13T13:12:36.064Z,20.50
2019-05-13T13:15:30.554Z,20.60
2019-05-13T13:17:32.839Z,19.57
2019-05-13T13:20:08.852Z,21.77
2019-05-13T13:22:32.354Z,20.17
2019-05-13T13:25:04.889Z,21.30
2019-05-13T13:27:59.941Z,22.37
2019-05-13T13:30:07.862Z,23.00
2019-05-13T13:32:33.286Z,24.43
2019-05-13T13:35:03.742Z,22.87
2019-05-13T13:37:34.820Z,23.63
2019-05-13T13:40:03.699Z,25.13
2019-05-13T13:42:33.195Z,21.47
2019-05-13T14:16:25.038Z,27.77
2019-05-13T14:18:41.917Z,29.23
2019-05-13T14:21:11.094Z,28.50
2019-05-13T14:23:42.389Z,34.50
2019-05-13T14:26:10.811Z,38.50
2019-05-13T14:28:41.914Z,33.20
2019-05-13T14:31:10.263Z,30.83
2019-05-13T14:33:39.111Z,34.17
2019-05-13T14:36:07.969Z,36.60
2019-05-13T14:38:36.981Z,34.67
2019-05-13T14:41:09.122Z,29.67
2019-05-13T14:43:37.441Z,34.67
2019-05-13T14:46:06.371Z,32.13
2019-05-13T14:48:35.189Z,30.90
2019-05-13T14:51:04.359Z,34.77
2019-05-13T14:53:33.305Z,31.77
2019-05-13T14:56:03.077Z,32.97
2019-05-13T14:58:32.760Z,28.77
2019-05-13T15:01:12.480Z,30.93
2019-05-13T15:03:44.454Z,31.93
2019-05-13T15:06:02.972Z,30.23
2019-05-13T15:08:32.821Z,31.63
2019-05-13T15:11:02.215Z,33.37
2019-05-13T15:13:33.048Z,32.43
2019-05-13T15:16:01.869Z,34.70
2019-05-13T15:18:32.711Z,33.50
2019-05-13T15:21:01.859Z,52.50
2019-05-13T15:23:31.670Z,38.13
2019-05-13T15:26:02.231Z,35.90
2019-05-13T15:28:31.861Z,33.10
2019-05-13T15:31:00.971Z,35.87
2019-05-13T15:33:32.277Z,40.33
2019-05-13T15:36:01.688Z,42.20
2019-05-13T15:38:32.039Z,44.53
2019-05-13T15:41:02.018Z,42.00
2019-05-13T15:43:31.923Z,44.67
2019-05-13T15:46:01.771Z,45.27
2019-05-13T15:48:31.684Z,45.10
2019-05-13T15:51:02.054Z,45.67
2019-05-13T15:53:32.043Z,43.10
2019-05-13T15:56:02.659Z,44.87
2019-05-13T15:58:39.435Z,49.83
2019-05-13T16:01:03.153Z,49.60
2019-05-13T16:03:32.256Z,49.50
2019-05-13T16:06:01.640Z,46.73
2019-05-13T16:08:31.807Z,48.50
2019-05-13T16:11:02.159Z,45.70
2019-05-13T16:13:31.954Z,36.10
2019-05-13T16:16:01.734Z,36.77
2019-05-13T16:18:31.699Z,32.07
2019-05-13T16:21:01.766Z,31.73
2019-05-13T16:23:32.434Z,30.20
2019-05-13T16:26:01.894Z,28.50
2019-05-13T16:28:32.506Z,27.13
2019-05-13T16:31:02.386Z,25.10
2019-05-13T16:33:31.619Z,24.10
2019-05-13T16:36:02.564Z,22.83
2019-05-13T16:38:32.951Z,21.70
2019-05-13T16:41:02.095Z,22.30
2019-05-13T16:43:31.937Z,21.63
2019-05-13T16:46:01.214Z,20.97
2019-05-13T16:48:32.118Z,22.37
2019-05-13T16:51:00.585Z,21.97
2019-05-13T16:53:31.424Z,21.63
2019-05-13T16:56:01.721Z,21.60
2019-05-13T16:58:32.534Z,22.87
2019-05-13T17:01:02.491Z,22.97
2019-05-13T17:03:32.002Z,23.23
2019-05-13T17:06:02.183Z,24.73
2019-05-13T17:08:31.980Z,26.63
2019-05-13T17:11:02.200Z,25.57
2019-05-13T17:13:31.594Z,24.63
2019-05-13T17:16:01.635Z,24.23
2019-05-13T17:18:32.388Z,24.13
2019-05-13T17:21:01.581Z,23.63
2019-05-13T17:23:30.709Z,22.10
2019-05-13T17:25:59.523Z,23.90
2019-05-13T17:28:30.869Z,23.70
2019-05-13T17:30:58.934Z,24.77
2019-05-13T17:33:27.798Z,22.40
2019-05-13T17:35:56.672Z,21.87
2019-05-13T17:38:25.559Z,21.70
2019-05-13T17:40:54.423Z,21.63
2019-05-13T17:43:23.291Z,20.03
2019-05-13T17:45:52.389Z,22.23
2019-05-13T17:48:26.786Z,19.20
2019-05-13T17:50:52.195Z,19.33
2019-05-13T17:53:21.692Z,17.27
2019-05-13T17:55:51.575Z,17.13
2019-05-13T17:58:22.150Z,14.70
2019-05-13T18:01:08.893Z,15.70
2019-05-13T18:03:37.476Z,16.27
2019-05-13T18:06:06.767Z,17.30
2019-05-13T18:08:35.675Z,18.63
2019-05-13T18:11:04.540Z,18.13
2019-05-13T18:13:33.698Z,17.93
2019-05-13T18:16:02.851Z,18.93
2019-05-13T18:18:40.561Z,18.90
2019-05-13T18:21:02.420Z,18.37
2019-05-13T18:23:31.273Z,17.47
2019-05-13T18:26:01.945Z,18.90
2019-05-13T18:28:31.567Z,17.97
2019-05-13T18:31:01.714Z,14.77
2019-05-13T18:33:31.901Z,14.63
2019-05-13T18:36:02.064Z,13.77
2019-05-13T18:38:31.357Z,15.07
2019-05-13T18:41:01.669Z,15.40
2019-05-13T18:43:32.114Z,15.97
2019-05-13T18:46:02.068Z,17.50
2019-05-13T18:48:32.328Z,17.27
2019-05-13T18:51:01.561Z,16.40
2019-05-13T18:53:32.126Z,16.63
2019-05-13T18:56:01.934Z,16.27
2019-05-13T18:58:31.761Z,15.17
2019-05-13T19:01:01.369Z,14.93
2019-05-13T19:03:32.315Z,14.93
2019-05-13T19:06:01.034Z,16.30
2019-05-13T19:08:31.883Z,16.57
2019-05-13T19:11:01.195Z,14.30
2019-05-13T19:13:32.339Z,14.03
2019-05-13T19:16:02.367Z,14.77
2019-05-13T19:18:32.146Z,14.80
2019-05-13T19:21:01.890Z,14.77
2019-05-13T19:23:31.511Z,14.43
2019-05-13T19:26:01.973Z,15.30
2019-05-13T19:28:31.742Z,15.53
2019-05-13T19:31:02.258Z,15.67
2019-05-13T19:33:31.436Z,16.03
2019-05-13T19:36:01.414Z,15.87
2019-05-13T19:38:31.903Z,17.10
2019-05-13T19:41:03.375Z,17.20
2019-05-13T19:43:32.312Z,16.50
2019-05-13T19:46:01.752Z,16.77
2019-05-13T19:48:32.609Z,13.97
2019-05-13T19:51:01.687Z,13.87
2019-05-13T19:53:31.918Z,14.03
2019-05-13T19:56:01.531Z,15.07
2019-05-13T19:58:32.377Z,14.13
2019-05-13T20:01:01.191Z,15.87
2019-05-13T20:03:31.753Z,14.63
2019-05-13T20:06:02.191Z,16.77
2019-05-13T20:08:32.014Z,14.43
2019-05-13T20:11:02.106Z,15.27
2019-05-13T20:13:31.415Z,16.00
2019-05-13T20:16:19.552Z,15.63
2019-05-13T20:18:48.439Z,15.67
2019-05-13T20:21:17.802Z,16.47
2019-05-13T20:23:46.682Z,15.63
2019-05-13T20:26:15.703Z,15.30
2019-05-13T20:28:44.555Z,15.03
2019-05-13T20:31:13.483Z,15.07
2019-05-13T20:33:42.920Z,14.90
2019-05-13T20:36:12.081Z,14.37
2019-05-13T20:38:40.925Z,12.57
2019-05-13T20:41:12.521Z,12.80
2019-05-13T20:43:42.576Z,12.73
2019-05-13T20:46:11.736Z,11.57
2019-05-13T20:48:41.447Z,11.00
2019-05-13T20:51:11.384Z,11.40
2019-05-13T20:53:41.203Z,10.60
2019-05-13T20:56:10.344Z,11.10
2019-05-13T20:58:39.320Z,10.67
2019-05-13T21:01:08.194Z,10.50
2019-05-13T21:03:37.142Z,10.20
2019-05-13T21:06:06.033Z,11.17
2019-05-13T21:08:34.921Z,10.60
2019-05-13T21:11:03.910Z,11.20
2019-05-13T21:13:32.878Z,11.20
2019-05-13T21:16:03.783Z,10.57
2019-05-13T21:18:32.458Z,9.43
2019-05-13T21:21:01.322Z,10.70
2019-05-13T21:23:31.274Z,9.63
2019-05-13T21:26:01.581Z,9.30
2019-05-13T21:28:30.755Z,9.23
2019-05-13T21:31:01.938Z,7.13
2019-05-13T21:33:31.465Z,8.20
2019-05-13T21:36:01.826Z,7.53
2019-05-13T21:38:32.489Z,5.93
2019-05-13T21:41:01.583Z,5.77
2019-05-13T21:43:32.424Z,5.70
2019-05-13T21:46:01.973Z,5.57
2019-05-13T21:48:32.344Z,5.27
2019-05-13T21:51:01.539Z,5.20
2019-05-13T21:53:32.543Z,5.17
2019-05-13T21:56:02.261Z,5.07
2019-05-13T21:58:31.528Z,5.30
2019-05-13T22:01:01.592Z,4.80
2019-05-13T22:03:33.204Z,5.33
2019-05-13T22:06:01.939Z,5.60
2019-05-13T22:08:32.075Z,4.60
2019-05-13T22:11:01.914Z,4.67
2019-05-13T22:13:31.555Z,4.93
2019-05-13T22:16:01.695Z,3.97
2019-05-13T22:18:31.495Z,4.57
2019-05-13T22:21:01.328Z,5.10
2019-05-13T22:23:32.018Z,4.23
2019-05-13T22:26:01.639Z,4.50
2019-05-13T22:28:31.395Z,5.10
2019-05-13T22:31:01.375Z,4.57
2019-05-13T22:33:32.372Z,5.17
2019-05-13T22:36:01.819Z,4.80
2019-05-13T22:38:32.305Z,4.20
2019-05-13T22:41:01.495Z,4.63
2019-05-13T22:43:32.045Z,4.30
2019-05-13T22:46:00.846Z,4.37
2019-05-13T22:48:31.768Z,3.90
2019-05-13T22:51:01.307Z,3.67
2019-05-13T22:53:31.855Z,3.73
2019-05-13T22:56:01.285Z,4.00
2019-05-13T22:58:32.066Z,3.83
2019-05-13T23:01:02.445Z,3.77
2019-05-13T23:03:32.427Z,3.53
2019-05-13T23:06:01.700Z,3.23
2019-05-13T23:08:32.499Z,3.27
2019-05-13T23:11:01.993Z,2.93
2019-05-13T23:13:31.364Z,3.10
2019-05-13T23:16:02.324Z,2.80
2019-05-13T23:18:31.608Z,3.13
2019-05-13T23:21:02.283Z,2.90
2019-05-13T23:23:31.495Z,2.33
2019-05-13T23:26:00.394Z,2.37
2019-05-13T23:28:29.260Z,2.10
2019-05-13T23:30:58.118Z,2.30
2019-05-13T23:33:27.039Z,2.20
2019-05-13T23:35:55.899Z,2.43
2019-05-13T23:38:24.763Z,2.63
2019-05-13T23:40:53.674Z,2.70
2019-05-13T23:43:22.535Z,2.50
2019-05-13T23:45:51.434Z,2.67
2019-05-13T23:48:21.650Z,2.30
2019-05-13T23:50:52.158Z,2.40
2019-05-13T23:53:21.916Z,2.57
2019-05-13T23:55:52.214Z,3.00
2019-05-13T23:58:21.659Z,2.63
